Time;durP1;ratioP1;P1;durP2;ratioP2;P2;SDS_P1;SDS_P2;PMS_P1;PMS_P2;Temp;Humidity;BMP_temperature;BMP_pressure;BME280_temperature;BME280_humidity;BME280_pressure;Samples;Min_cycle;Max_cycle;Signal;HPM_P1;HPM_P2
2021/06/06 00:00:46;;;;;;;9.80;8.98;;;15.80;99.90;;;;;;4959257;28;20067;-84
2021/06/06 00:03:23;;;;;;;11.02;9.95;;;15.70;99.90;;;;;;4959260;28;20075;-84
2021/06/06 00:06:07;;;;;;;10.07;9.18;;;15.70;99.90;;;;;;4961653;28;20101;-84
2021/06/06 00:08:34;;;;;;;10.50;9.57;;;15.80;99.90;;;;;;4962250;28;20078;-85
2021/06/06 00:11:12;;;;;;;10.50;9.50;;;15.80;99.90;;;;;;4980211;28;20046;-85
2021/06/06 00:13:40;;;;;;;11.27;9.98;;;15.80;99.90;;;;;;4962142;28;20082;-83
2021/06/06 00:16:10;;;;;;;10.98;9.18;;;15.80;99.90;;;;;;4959775;28;20409;-84
2021/06/06 00:18:37;;;;;;;10.23;9.15;;;15.70;99.90;;;;;;4959587;28;20070;-84
2021/06/06 00:21:05;;;;;;;11.38;10.15;;;15.70;99.90;;;;;;4961501;28;20125;-84
2021/06/06 00:23:32;;;;;;;10.32;9.35;;;15.70;99.90;;;;;;4960398;28;20086;-85
2021/06/06 00:26:03;;;;;;;14.32;10.70;;;15.80;99.90;;;;;;4979343;28;20142;-85
2021/06/06 00:28:30;;;;;;;11.77;10.52;;;15.60;99.90;;;;;;4960307;28;20050;-85
2021/06/06 00:30:59;;;;;;;12.13;9.40;;;15.60;99.90;;;;;;4978257;28;20078;-83
2021/06/06 00:33:27;;;;;;;10.73;9.73;;;15.60;99.90;;;;;;4961801;28;20057;-83
2021/06/06 00:35:55;;;;;;;14.20;12.80;;;15.60;99.90;;;;;;4961559;28;20066;-83
2021/06/06 00:38:22;;;;;;;16.75;13.57;;;15.60;99.90;;;;;;4980117;28;20117;-83
2021/06/06 00:40:49;;;;;;;16.67;13.52;;;15.70;99.90;;;;;;4962406;28;20082;-84
2021/06/06 00:43:16;;;;;;;17.50;13.00;;;15.70;99.90;;;;;;4962368;28;20566;-84
2021/06/06 00:45:43;;;;;;;14.98;13.13;;;15.70;99.90;;;;;;4963694;28;20423;-83
2021/06/06 00:48:10;;;;;;;12.85;11.40;;;15.60;99.90;;;;;;4961117;28;20078;-85
2021/06/06 00:50:42;;;;;;;11.88;10.73;;;15.70;99.90;;;;;;4961305;28;20121;-84
2021/06/06 00:53:26;;;;;;;12.30;11.10;;;15.70;99.90;;;;;;4961468;28;20112;-85
2021/06/06 00:55:54;;;;;;;12.10;10.75;;;15.80;99.90;;;;;;4961073;28;20133;-84
2021/06/06 00:58:21;;;;;;;10.50;9.43;;;15.80;99.90;;;;;;4981124;28;20067;-83
2021/06/06 01:00:51;;;;;;;9.60;8.85;;;15.90;99.90;;;;;;4965739;28;20054;-84
2021/06/06 01:03:25;;;;;;;9.45;8.55;;;16.00;99.90;;;;;;4967329;28;20059;-83
2021/06/06 01:06:00;;;;;;;10.98;8.10;;;15.90;99.90;;;;;;4969060;28;20086;-84
2021/06/06 01:08:28;;;;;;;8.10;7.50;;;16.00;99.90;;;;;;4968763;28;20070;-84
2021/06/06 01:11:04;;;;;;;9.27;8.48;;;16.00;99.90;;;;;;4969720;28;20058;-83
2021/06/06 01:13:41;;;;;;;9.02;8.23;;;15.90;99.90;;;;;;4971414;28;20050;-84
2021/06/06 01:16:21;;;;;;;9.40;8.60;;;15.90;99.90;;;;;;4987934;28;20051;-83
2021/06/06 01:18:50;;;;;;;11.30;9.40;;;15.90;99.90;;;;;;4961881;28;20198;-84
2021/06/06 01:21:48;;;;;;;9.18;8.27;;;16.00;99.90;;;;;;4961634;28;20077;-84
2021/06/06 01:24:33;;;;;;;9.07;7.75;;;16.10;99.90;;;;;;4961622;28;20506;-84
2021/06/06 01:27:03;;;;;;;8.73;7.97;;;16.10;99.90;;;;;;4949628;29;20530;-83
2021/06/06 01:29:35;;;;;;;8.73;7.90;;;16.10;99.90;;;;;;4942859;29;20138;-84
2021/06/06 01:32:15;;;;;;;10.02;8.13;;;16.10;99.90;;;;;;4944098;29;20051;-84
2021/06/06 01:34:45;;;;;;;9.52;8.73;;;16.00;99.90;;;;;;4943947;29;20589;-84
2021/06/06 01:37:17;;;;;;;9.32;8.52;;;16.00;99.90;;;;;;4946373;29;20115;-84
2021/06/06 01:39:49;;;;;;;9.43;8.45;;;16.10;99.90;;;;;;4945012;28;20075;-84
2021/06/06 01:42:25;;;;;;;9.38;8.48;;;16.10;99.90;;;;;;4945220;29;20051;-85
2021/06/06 01:44:55;;;;;;;12.48;8.63;;;16.10;99.90;;;;;;4945374;29;20102;-85
2021/06/06 01:47:25;;;;;;;8.98;8.10;;;16.20;99.90;;;;;;4943520;29;20086;-84
2021/06/06 01:49:59;;;;;;;10.07;8.45;;;16.20;99.90;;;;;;4946311;29;20145;-85
2021/06/06 01:52:30;;;;;;;13.18;8.77;;;16.10;99.90;;;;;;4944816;29;20075;-84
2021/06/06 01:54:58;;;;;;;9.63;8.82;;;16.20;99.90;;;;;;4962119;29;20083;-84
2021/06/06 01:57:27;;;;;;;9.80;8.88;;;16.20;99.90;;;;;;4943982;29;20134;-84
2021/06/06 01:59:58;;;;;;;9.43;8.52;;;16.10;99.90;;;;;;4961049;28;20082;-84
2021/06/06 02:02:25;;;;;;;10.63;9.52;;;16.20;99.90;;;;;;4944577;28;20078;-86
2021/06/06 02:04:52;;;;;;;10.38;9.38;;;16.20;99.90;;;;;;4944303;28;20055;-85
2021/06/06 02:07:27;;;;;;;10.20;9.07;;;16.20;99.90;;;;;;4944440;29;20154;-85
2021/06/06 02:10:01;;;;;;;9.50;8.60;;;16.20;99.90;;;;;;4944294;28;20414;-84
2021/06/06 02:12:31;;;;;;;9.52;8.55;;;16.10;99.90;;;;;;4963313;29;20059;-85
2021/06/06 02:15:00;;;;;;;9.73;8.88;;;16.10;99.90;;;;;;4944801;29;20055;-85
2021/06/06 02:17:30;;;;;;;10.13;9.23;;;16.10;99.90;;;;;;4945552;29;20414;-85
2021/06/06 02:20:03;;;;;;;11.13;10.02;;;16.10;99.90;;;;;;4944648;29;20097;-85
2021/06/06 02:22:31;;;;;;;11.25;9.77;;;16.10;99.90;;;;;;4944398;29;20142;-85
2021/06/06 02:24:59;;;;;;;11.50;10.30;;;16.10;99.90;;;;;;4944129;29;20102;-85
2021/06/06 02:27:36;;;;;;;10.68;8.77;;;16.10;99.90;;;;;;4960209;28;20133;-85
2021/06/06 02:30:24;;;;;;;12.13;10.55;;;16.10;99.90;;;;;;4963931;28;20050;-85
2021/06/06 02:33:04;;;;;;;10.68;9.63;;;16.00;99.90;;;;;;4980717;28;20058;-85
2021/06/06 02:35:39;;;;;;;11.43;10.23;;;16.00;99.90;;;;;;4964043;28;20086;-86
2021/06/06 02:38:12;;;;;;;12.73;11.00;;;16.10;99.90;;;;;;4964267;28;20054;-86
2021/06/06 02:40:51;;;;;;;14.47;12.30;;;16.00;99.90;;;;;;4963674;28;20057;-85
2021/06/06 02:43:27;;;;;;;13.05;10.98;;;16.00;99.90;;;;;;4963826;28;20710;-85
2021/06/06 02:45:58;;;;;;;17.15;13.10;;;16.00;99.90;;;;;;4963696;28;20490;-85
2021/06/06 02:48:29;;;;;;;14.30;12.57;;;15.90;99.90;;;;;;4963376;28;20050;-85
2021/06/06 02:51:03;;;;;;;14.07;11.18;;;16.00;99.90;;;;;;4963457;28;20082;-85
2021/06/06 02:53:33;;;;;;;12.50;11.20;;;16.10;99.90;;;;;;4963979;28;20122;-85
2021/06/06 02:56:10;;;;;;;11.95;10.70;;;16.10;99.90;;;;;;4981708;28;20093;-85
2021/06/06 02:58:49;;;;;;;13.52;10.88;;;16.10;99.90;;;;;;4964266;28;20078;-84
2021/06/06 03:01:33;;;;;;;12.75;10.93;;;16.20;99.90;;;;;;4962990;28;20051;-84
2021/06/06 03:04:04;;;;;;;10.98;9.93;;;16.10;99.90;;;;;;4961452;28;20054;-83
2021/06/06 03:06:40;;;;;;;11.60;10.48;;;16.10;99.90;;;;;;4960315;28;20142;-84
2021/06/06 03:09:09;;;;;;;18.25;11.48;;;16.10;99.90;;;;;;4960664;28;20057;-84
2021/06/06 03:11:40;;;;;;;13.10;11.00;;;16.20;99.90;;;;;;4977213;28;20666;-86
2021/06/06 03:14:12;;;;;;;17.30;11.52;;;16.10;99.90;;;;;;4960120;28;20062;-86
2021/06/06 03:16:49;;;;;;;13.68;10.73;;;16.10;99.90;;;;;;4959893;28;20134;-85
2021/06/06 03:19:16;;;;;;;12.82;10.30;;;16.10;99.90;;;;;;4960292;28;20125;-86
2021/06/06 03:21:45;;;;;;;13.27;10.63;;;16.10;99.90;;;;;;4958786;28;20134;-86
2021/06/06 03:24:18;;;;;;;11.88;10.00;;;16.10;99.90;;;;;;4975631;28;20046;-87
2021/06/06 03:26:47;;;;;;;10.77;9.77;;;16.10;99.90;;;;;;4958514;28;20536;-87
2021/06/06 03:29:19;;;;;;;12.13;9.70;;;16.10;99.90;;;;;;4976038;28;20210;-87
2021/06/06 03:31:51;;;;;;;11.43;10.23;;;16.10;99.90;;;;;;4958894;28;20073;-87
2021/06/06 03:34:17;;;;;;;11.65;10.55;;;16.10;99.90;;;;;;4976527;28;20129;-86
2021/06/06 03:36:46;;;;;;;12.32;10.30;;;16.10;99.90;;;;;;4958893;28;20055;-87
2021/06/06 03:39:16;;;;;;;11.02;9.93;;;16.10;99.90;;;;;;4958323;28;20093;-87
2021/06/06 03:41:45;;;;;;;10.90;9.90;;;16.10;99.90;;;;;;4958650;28;20544;-86
2021/06/06 03:44:12;;;;;;;10.30;9.40;;;16.10;99.90;;;;;;4959021;28;20047;-86
2021/06/06 03:46:39;;;;;;;10.57;9.57;;;16.20;99.90;;;;;;4958406;28;20053;-86
2021/06/06 03:49:07;;;;;;;10.63;9.63;;;16.20;99.90;;;;;;4975298;28;20053;-86
2021/06/06 03:51:35;;;;;;;10.70;9.60;;;16.10;99.90;;;;;;4958592;28;20109;-87
2021/06/06 03:54:04;;;;;;;10.77;9.68;;;16.10;99.90;;;;;;4958138;28;20137;-87
2021/06/06 03:56:30;;;;;;;10.88;9.88;;;16.10;99.90;;;;;;4958132;28;20490;-86
2021/06/06 03:58:57;;;;;;;10.95;8.90;;;16.10;99.90;;;;;;4958380;28;20076;-87
2021/06/06 04:01:24;;;;;;;9.93;9.10;;;16.20;99.90;;;;;;4961200;28;20066;-87
2021/06/06 04:03:52;;;;;;;9.32;8.52;;;16.20;99.90;;;;;;4980487;28;20057;-87
2021/06/06 04:06:19;;;;;;;9.50;8.70;;;16.20;99.90;;;;;;4961142;28;20130;-86
2021/06/06 04:08:46;;;;;;;10.02;9.02;;;16.20;99.90;;;;;;4958171;28;20078;-86
2021/06/06 04:11:13;;;;;;;9.07;8.18;;;16.20;99.90;;;;;;4960677;28;20179;-87
2021/06/06 04:13:40;;;;;;;9.00;8.13;;;16.20;99.90;;;;;;4958475;28;20141;-86
2021/06/06 04:16:07;;;;;;;8.52;7.80;;;16.20;99.90;;;;;;4958800;28;20130;-87
2021/06/06 04:18:35;;;;;;;8.38;7.68;;;16.20;99.90;;;;;;4959728;28;20046;-87
2021/06/06 04:21:09;;;;;;;9.75;8.45;;;16.20;99.90;;;;;;4959590;28;20047;-87
2021/06/06 04:23:36;;;;;;;8.35;7.68;;;16.20;99.90;;;;;;4958009;28;20130;-86
2021/06/06 04:26:04;;;;;;;8.95;8.15;;;16.20;99.90;;;;;;4974523;28;20082;-86
2021/06/06 04:28:31;;;;;;;9.15;8.35;;;16.30;99.90;;;;;;4974384;28;20082;-86
2021/06/06 04:30:58;;;;;;;8.15;7.50;;;16.30;99.90;;;;;;4957555;28;20070;-86
2021/06/06 04:33:26;;;;;;;8.30;7.63;;;16.30;99.90;;;;;;4957221;28;20498;-87
2021/06/06 04:35:53;;;;;;;8.30;7.50;;;16.20;99.90;;;;;;4957479;28;20074;-86
2021/06/06 04:38:23;;;;;;;9.55;8.70;;;16.30;99.90;;;;;;4957473;28;20137;-86
2021/06/06 04:40:51;;;;;;;8.30;7.70;;;16.30;99.90;;;;;;4974437;28;20057;-86
2021/06/06 04:43:18;;;;;;;10.32;8.77;;;16.30;99.90;;;;;;4957384;28;20061;-86
2021/06/06 04:45:45;;;;;;;8.80;8.00;;;16.20;99.90;;;;;;4957208;28;20138;-86
2021/06/06 04:48:20;;;;;;;10.68;9.32;;;16.20;99.90;;;;;;4957373;28;20093;-86
2021/06/06 04:50:48;;;;;;;9.85;8.98;;;16.30;99.90;;;;;;4957180;28;20163;-86
2021/06/06 04:53:15;;;;;;;10.32;9.23;;;16.40;99.90;;;;;;4957441;28;20239;-86
2021/06/06 04:55:43;;;;;;;9.90;8.90;;;16.40;99.90;;;;;;4957223;28;20137;-86
2021/06/06 04:58:15;;;;;;;9.65;8.65;;;16.40;99.90;;;;;;4957260;28;20465;-86
2021/06/06 05:00:43;;;;;;;9.05;8.25;;;16.40;99.90;;;;;;4956838;28;20498;-86
2021/06/06 05:03:12;;;;;;;10.38;9.27;;;16.40;99.90;;;;;;4957374;28;20146;-85
2021/06/06 05:05:40;;;;;;;9.40;8.55;;;16.50;99.90;;;;;;4957264;28;20418;-85
2021/06/06 05:08:07;;;;;;;7.47;6.93;;;16.50;99.90;;;;;;4957125;28;20082;-85
2021/06/06 05:10:38;;;;;;;7.22;6.72;;;16.60;99.90;;;;;;4957042;28;20554;-85
2021/06/06 05:13:06;;;;;;;7.55;6.95;;;16.60;99.90;;;;;;4959573;28;20051;-85
2021/06/06 05:15:33;;;;;;;7.30;6.70;;;16.60;99.90;;;;;;4960929;28;20047;-86
2021/06/06 05:18:00;;;;;;;7.38;6.80;;;16.70;99.90;;;;;;4960821;28;20069;-86
2021/06/06 05:20:33;;;;;;;7.85;7.18;;;16.70;99.90;;;;;;4960906;28;20051;-86
2021/06/06 05:22:59;;;;;;;8.10;7.50;;;16.80;99.90;;;;;;4961044;28;20481;-86
2021/06/06 05:25:26;;;;;;;7.78;7.18;;;16.80;99.90;;;;;;4977592;28;20085;-86
2021/06/06 05:27:53;;;;;;;7.78;7.20;;;16.90;99.90;;;;;;4960596;28;20046;-86
2021/06/06 05:30:25;;;;;;;8.27;7.68;;;16.90;99.90;;;;;;4960719;28;20055;-88
2021/06/06 05:32:54;;;;;;;9.20;8.38;;;16.80;99.90;;;;;;4961090;28;20050;-88
2021/06/06 05:40:15;;;;;;;9.70;8.90;;;16.70;99.90;;;;;;4915577;29;20103;-89
2021/06/06 05:43:02;;;;;;;11.07;10.07;;;16.70;99.90;;;;;;4908339;29;20063;-89
2021/06/06 05:45:48;;;;;;;11.75;10.65;;;16.70;99.90;;;;;;4902178;29;20056;-89
2021/06/06 05:48:53;;;;;;;;;;;;;;;;;;;;;
2021/06/06 05:51:38;;;;;;;11.23;10.13;;;16.90;99.90;;;;;;4917860;29;20155;-88
2021/06/06 05:58:14;;;;;;;13.30;10.68;;;17.10;99.90;;;;;;4972306;28;20051;-89
2021/06/06 06:01:05;;;;;;;13.35;11.88;;;17.30;99.90;;;;;;4886645;29;20049;-89
2021/06/06 06:09:01;;;;;;;14.27;11.77;;;17.30;99.90;;;;;;4899823;29;20072;-87
2021/06/06 06:11:32;;;;;;;13.88;12.57;;;17.20;99.90;;;;;;4842874;29;20099;-86
2021/06/06 06:14:02;;;;;;;16.17;14.43;;;17.20;99.90;;;;;;4827718;29;20058;-87
2021/06/06 06:17:04;;;;;;;16.90;14.07;;;17.10;99.90;;;;;;4827894;29;20421;-90
2021/06/06 06:20:32;;;;;;;18.40;15.63;;;17.20;99.90;;;;;;4770288;30;20060;-91
2021/06/06 06:24:09;;;;;;;15.55;14.02;;;17.10;99.90;;;;;;4756034;30;20059;-90
2021/06/06 06:26:39;;;;;;;15.02;13.48;;;17.20;99.90;;;;;;4769902;30;20060;-87
2021/06/06 06:29:07;;;;;;;17.20;14.82;;;17.20;99.90;;;;;;4808151;29;20103;-86
2021/06/06 06:31:35;;;;;;;16.30;14.70;;;17.20;99.90;;;;;;4827187;29;20534;-86
2021/06/06 06:34:05;;;;;;;19.17;15.57;;;17.30;99.90;;;;;;4819139;29;20057;-86
2021/06/06 06:36:32;;;;;;;19.35;16.45;;;17.30;99.90;;;;;;4870025;28;20465;-86
2021/06/06 06:39:04;;;;;;;19.13;16.35;;;17.30;99.90;;;;;;4960235;28;20051;-86
2021/06/06 06:41:31;;;;;;;19.02;17.02;;;17.30;99.90;;;;;;4960028;28;20047;-86
2021/06/06 06:44:14;;;;;;;21.48;17.30;;;17.40;99.90;;;;;;4960317;28;20071;-87
2021/06/06 06:46:41;;;;;;;21.27;17.02;;;17.50;99.90;;;;;;4960377;28;20093;-86
2021/06/06 06:49:15;;;;;;;21.92;19.50;;;17.60;99.90;;;;;;4960394;28;20047;-88
2021/06/06 06:51:41;;;;;;;25.48;19.67;;;17.70;99.90;;;;;;4959956;28;20133;-89
2021/06/06 06:54:08;;;;;;;25.98;18.92;;;17.70;99.90;;;;;;4959586;28;20573;-88
2021/06/06 06:57:18;;;;;;;22.35;18.48;;;17.80;99.90;;;;;;4960100;28;20503;-89
2021/06/06 06:59:45;;;;;;;25.77;20.27;;;17.90;99.90;;;;;;4960083;28;20093;-88
2021/06/06 07:02:12;;;;;;;20.15;17.77;;;18.00;99.90;;;;;;4979131;28;20043;-87
2021/06/06 07:04:39;;;;;;;23.75;19.25;;;18.00;99.90;;;;;;4967536;28;20051;-87
2021/06/06 07:07:34;;;;;;;19.88;16.85;;;18.10;99.90;;;;;;4960135;28;20109;-87
2021/06/06 07:10:38;;;;;;;19.83;17.13;;;18.20;99.90;;;;;;4959781;28;20516;-87
2021/06/06 07:13:05;;;;;;;19.23;17.20;;;18.40;99.90;;;;;;4959224;28;20074;-87
2021/06/06 07:15:34;;;;;;;18.02;16.08;;;18.70;99.90;;;;;;4976074;28;20082;-88
2021/06/06 07:18:02;;;;;;;20.70;15.65;;;19.00;99.90;;;;;;4959060;28;20141;-88
2021/06/06 07:20:35;;;;;;;19.05;16.45;;;19.10;99.90;;;;;;4959463;28;20082;-86
2021/06/06 07:23:03;;;;;;;18.13;16.23;;;19.20;99.90;;;;;;4959650;28;20070;-87
2021/06/06 07:25:30;;;;;;;19.70;16.88;;;19.30;99.90;;;;;;4958536;28;20118;-86
2021/06/06 07:28:00;;;;;;;19.42;16.98;;;19.40;99.90;;;;;;4949938;29;20149;-87
2021/06/06 07:30:35;;;;;;;18.23;16.30;;;19.40;99.90;;;;;;4941182;29;20051;-87
2021/06/06 07:33:03;;;;;;;16.33;14.60;;;19.40;99.90;;;;;;4939911;29;20105;-86
2021/06/06 07:35:32;;;;;;;17.92;15.13;;;19.50;99.90;;;;;;4938762;28;20051;-87
2021/06/06 07:37:59;;;;;;;16.38;14.68;;;19.50;99.90;;;;;;4942171;29;20134;-87
2021/06/06 07:40:32;;;;;;;17.70;13.73;;;19.50;99.90;;;;;;4942057;28;20066;-87
2021/06/06 07:42:59;;;;;;;18.67;16.17;;;19.50;99.90;;;;;;4942644;29;20078;-86
2021/06/06 07:45:28;;;;;;;16.77;15.07;;;19.50;99.90;;;;;;4943327;29;20047;-86
2021/06/06 07:47:55;;;;;;;23.77;15.18;;;19.50;99.90;;;;;;4945031;28;20055;-86
2021/06/06 07:50:27;;;;;;;19.40;16.77;;;19.60;99.90;;;;;;4951303;29;20048;-86
2021/06/06 07:52:54;;;;;;;15.38;13.77;;;19.80;99.90;;;;;;4947550;29;20074;-86
2021/06/06 07:55:24;;;;;;;15.48;12.75;;;20.10;99.90;;;;;;4950749;29;20075;-87
2021/06/06 07:57:51;;;;;;;13.32;11.95;;;20.50;99.90;;;;;;4966744;28;20086;-86
2021/06/06 08:00:22;;;;;;;12.80;11.50;;;20.80;99.90;;;;;;4949295;29;20114;-87
2021/06/06 08:02:49;;;;;;;13.25;11.85;;;21.00;99.90;;;;;;4947343;29;20111;-87
2021/06/06 08:05:17;;;;;;;14.38;12.90;;;21.10;99.90;;;;;;4947630;29;20122;-85
2021/06/06 08:07:44;;;;;;;13.45;12.15;;;20.90;99.90;;;;;;4942400;29;20085;-84
2021/06/06 08:10:13;;;;;;;16.10;14.48;;;21.10;99.90;;;;;;4943814;29;20082;-85
2021/06/06 08:12:40;;;;;;;22.67;14.20;;;21.00;99.90;;;;;;4944421;29;20121;-86
2021/06/06 08:15:09;;;;;;;14.73;13.25;;;20.70;99.90;;;;;;4942190;29;20523;-85
2021/06/06 08:17:36;;;;;;;14.80;12.38;;;20.70;99.90;;;;;;4942434;29;20058;-86
2021/06/06 08:20:08;;;;;;;16.23;13.65;;;20.50;99.90;;;;;;4943263;29;20123;-86
2021/06/06 08:22:36;;;;;;;15.93;13.80;;;20.30;99.90;;;;;;4942299;29;20079;-86
2021/06/06 08:25:07;;;;;;;16.05;14.38;;;19.80;99.90;;;;;;4962179;28;20075;-84
2021/06/06 08:27:42;;;;;;;18.08;14.85;;;19.80;99.90;;;;;;4947965;28;20083;-84
2021/06/06 08:30:17;;;;;;;16.67;14.88;;;19.60;99.90;;;;;;4946710;29;20126;-86
2021/06/06 08:32:44;;;;;;;21.58;17.75;;;19.60;99.90;;;;;;4963792;28;20083;-86
2021/06/06 08:35:11;;;;;;;42.42;35.05;;;19.60;99.90;;;;;;4948247;29;20184;-86
2021/06/06 08:37:38;;;;;;;17.88;16.10;;;19.90;99.90;;;;;;4949264;29;20093;-86
2021/06/06 08:40:10;;;;;;;16.08;14.48;;;20.20;99.90;;;;;;4948274;29;20078;-85
2021/06/06 08:42:42;;;;;;;16.17;12.43;;;20.30;99.90;;;;;;4946539;28;20102;-86
2021/06/06 08:45:34;;;;;;;16.02;14.45;;;20.70;99.90;;;;;;4946737;29;20126;-86
2021/06/06 08:48:05;;;;;;;15.93;14.27;;;20.70;99.90;;;;;;4947979;29;20055;-85
2021/06/06 08:50:40;;;;;;;16.15;14.55;;;20.90;99.90;;;;;;4946594;29;20106;-84
2021/06/06 08:53:35;;;;;;;15.77;14.07;;;21.10;99.90;;;;;;4946310;29;20074;-85
2021/06/06 08:56:22;;;;;;;15.25;13.65;;;22.00;99.90;;;;;;4947907;29;20541;-84
2021/06/06 08:59:08;;;;;;;14.77;13.40;;;22.30;99.90;;;;;;4947741;29;20083;-85
2021/06/06 09:01:49;;;;;;;17.73;14.45;;;22.30;99.90;;;;;;4948302;29;20151;-84
2021/06/06 09:04:26;;;;;;;14.23;12.82;;;21.90;99.90;;;;;;4946544;29;20405;-84
2021/06/06 09:07:02;;;;;;;13.52;12.25;;;21.80;99.90;;;;;;4946543;29;20138;-83
2021/06/06 09:09:32;;;;;;;15.35;13.85;;;21.60;99.90;;;;;;4946349;28;20044;-84
2021/06/06 09:12:06;;;;;;;13.02;11.77;;;21.60;99.90;;;;;;4941784;29;20138;-83
2021/06/06 09:14:34;;;;;;;12.65;11.55;;;22.00;99.90;;;;;;4962684;28;20079;-84
2021/06/06 09:17:07;;;;;;;15.50;12.63;;;22.10;99.90;;;;;;4963211;28;20071;-84
2021/06/06 09:19:44;;;;;;;13.00;11.83;;;22.10;99.90;;;;;;4969106;28;20047;-85
2021/06/06 09:22:33;;;;;;;12.25;10.95;;;22.50;99.90;;;;;;4975455;28;20467;-82
2021/06/06 09:25:15;;;;;;;13.05;11.82;;;22.60;99.90;;;;;;4955503;28;20054;-84
2021/06/06 09:27:42;;;;;;;16.73;13.48;;;22.20;99.90;;;;;;4956787;28;20115;-82
2021/06/06 09:30:14;;;;;;;12.80;11.57;;;22.00;99.90;;;;;;4974788;28;20078;-84
2021/06/06 09:32:42;;;;;;;14.83;11.43;;;22.40;99.90;;;;;;4958230;28;20061;-82
2021/06/06 09:35:24;;;;;;;14.18;12.23;;;23.00;99.90;;;;;;4960376;28;20046;-83
2021/06/06 09:38:13;;;;;;;12.45;11.27;;;22.90;99.90;;;;;;4959956;28;20097;-85
2021/06/06 09:40:44;;;;;;;13.35;11.95;;;22.80;99.90;;;;;;4960514;28;20074;-83
2021/06/06 09:43:26;;;;;;;10.82;9.73;;;22.60;99.90;;;;;;4959642;28;20133;-84
2021/06/06 09:46:09;;;;;;;11.38;10.38;;;22.70;99.90;;;;;;4959899;28;20129;-84
2021/06/06 09:48:40;;;;;;;11.95;9.52;;;22.70;99.90;;;;;;4978041;28;20070;-82
2021/06/06 09:51:13;;;;;;;11.43;10.32;;;22.60;99.90;;;;;;4961733;28;20513;-83
2021/06/06 09:53:42;;;;;;;11.88;10.65;;;22.30;99.90;;;;;;4960728;28;20138;-83
2021/06/06 09:56:22;;;;;;;10.45;9.55;;;22.20;99.90;;;;;;4960100;28;20502;-83
2021/06/06 09:58:54;;;;;;;10.30;9.50;;;22.50;99.90;;;;;;4964274;28;20042;-83
2021/06/06 10:01:29;;;;;;;13.18;9.52;;;23.10;99.90;;;;;;4981326;28;20069;-83
2021/06/06 10:04:06;;;;;;;11.27;10.07;;;23.50;99.90;;;;;;4966464;28;20110;-83
2021/06/06 10:06:43;;;;;;;8.98;8.05;;;24.10;99.90;;;;;;4981112;28;20046;-84
2021/06/06 10:09:19;;;;;;;8.02;7.25;;;24.50;99.90;;;;;;4962853;28;20110;-83
2021/06/06 10:12:09;;;;;;;8.18;7.40;;;24.60;99.90;;;;;;4962785;28;20089;-83
2021/06/06 10:14:49;;;;;;;7.65;6.95;;;24.30;99.90;;;;;;4967591;28;20117;-84
2021/06/06 10:17:24;;;;;;;7.18;6.60;;;24.50;99.90;;;;;;4967680;28;20114;-85
2021/06/06 10:20:03;;;;;;;7.15;6.45;;;24.30;99.90;;;;;;4968853;28;20474;-85
2021/06/06 10:22:35;;;;;;;8.65;6.65;;;24.60;99.90;;;;;;4968112;28;20450;-85
2021/06/06 10:25:10;;;;;;;7.97;7.38;;;24.80;99.90;;;;;;4969081;28;20137;-86
2021/06/06 10:27:46;;;;;;;6.32;5.93;;;24.60;99.90;;;;;;4952804;28;20062;-85
2021/06/06 10:30:27;;;;;;;9.32;7.03;;;24.40;99.90;;;;;;4946559;29;20474;-85
2021/06/06 10:33:00;;;;;;;5.13;4.80;;;24.20;99.90;;;;;;4948967;29;20055;-84
2021/06/06 10:35:29;;;;;;;8.13;5.18;;;24.20;99.90;;;;;;4945760;29;20055;-85
2021/06/06 10:37:58;;;;;;;5.85;5.35;;;24.30;99.90;;;;;;4948309;29;20454;-85
2021/06/06 10:40:38;;;;;;;4.45;4.13;;;24.00;99.90;;;;;;4966000;29;20051;-85
2021/06/06 10:43:27;;;;;;;5.38;4.90;;;26.20;99.90;;;;;;4949559;29;20130;-85
2021/06/06 10:46:25;;;;;;;6.75;3.97;;;26.50;99.90;;;;;;4963293;29;20087;-84
2021/06/06 10:48:59;;;;;;;4.68;4.38;;;26.70;99.90;;;;;;4941934;29;20055;-84
2021/06/06 10:51:48;;;;;;;5.65;5.20;;;25.90;99.90;;;;;;4940754;29;20052;-85
2021/06/06 10:54:31;;;;;;;6.68;6.07;;;24.80;99.90;;;;;;4940438;29;20058;-84
2021/06/06 10:57:04;;;;;;;6.20;5.70;;;24.00;99.90;;;;;;4959525;29;20107;-83
2021/06/06 10:59:40;;;;;;;8.43;7.63;;;23.10;99.90;;;;;;4942166;29;20051;-84
2021/06/06 11:02:13;;;;;;;8.32;7.30;;;22.50;99.90;;;;;;4932582;29;20463;-84
2021/06/06 11:04:53;;;;;;;8.32;7.68;;;21.90;99.90;;;;;;4939239;29;20075;-82
2021/06/06 11:07:38;;;;;;;10.52;7.90;;;21.50;99.90;;;;;;4963994;29;20103;-83
2021/06/06 11:10:07;;;;;;;10.35;8.50;;;21.40;99.90;;;;;;4938364;29;20143;-83
2021/06/06 11:12:38;;;;;;;8.80;8.05;;;21.00;99.90;;;;;;4959170;29;20150;-85
2021/06/06 11:15:30;;;;;;;10.05;7.70;;;20.90;99.90;;;;;;4942352;29;20054;-83
2021/06/06 11:18:27;;;;;;;8.18;7.38;;;20.90;99.90;;;;;;4943025;29;20083;-85
2021/06/06 11:20:59;;;;;;;7.80;7.10;;;21.10;99.90;;;;;;4934188;29;20138;-84
2021/06/06 11:23:37;;;;;;;9.73;8.80;;;21.20;99.90;;;;;;4944537;29;20080;-85
2021/06/06 11:26:36;;;;;;;8.18;7.30;;;21.30;99.90;;;;;;4947388;28;20051;-83
2021/06/06 11:29:20;;;;;;;8.57;7.88;;;21.40;99.90;;;;;;4957992;29;20133;-84
2021/06/06 11:32:10;;;;;;;7.63;6.93;;;21.40;99.90;;;;;;4957613;29;20146;-84
2021/06/06 11:34:41;;;;;;;9.45;8.02;;;21.50;99.90;;;;;;4957887;29;20055;-84
2021/06/06 11:37:32;;;;;;;9.60;8.60;;;21.60;99.90;;;;;;4954552;29;20047;-84
2021/06/06 11:40:07;;;;;;;8.85;7.95;;;21.50;99.90;;;;;;4947964;29;20058;-84
2021/06/06 11:42:38;;;;;;;9.20;8.30;;;21.50;99.90;;;;;;4952739;29;20483;-84
2021/06/06 11:45:16;;;;;;;11.25;8.85;;;21.40;99.90;;;;;;4954209;29;20039;-83
2021/06/06 11:47:49;;;;;;;8.45;7.75;;;21.50;99.90;;;;;;4949328;29;20047;-83
2021/06/06 11:50:20;;;;;;;8.87;7.80;;;21.50;99.90;;;;;;4955378;29;20048;-84
2021/06/06 11:53:04;;;;;;;8.70;7.85;;;21.40;99.90;;;;;;4951149;29;20130;-85
2021/06/06 11:55:38;;;;;;;10.43;7.70;;;21.50;99.90;;;;;;4947710;29;20055;-85
2021/06/06 11:58:19;;;;;;;9.40;7.30;;;21.40;99.90;;;;;;4930336;29;20078;-85
2021/06/06 12:00:57;;;;;;;8.80;8.20;;;21.40;99.90;;;;;;4949359;29;20086;-84
2021/06/06 12:03:24;;;;;;;10.77;8.45;;;21.40;99.90;;;;;;4947069;29;20047;-84
2021/06/06 12:06:06;;;;;;;9.80;8.93;;;21.40;99.90;;;;;;4948500;29;20105;-84
2021/06/06 12:08:52;;;;;;;9.90;8.57;;;21.30;99.90;;;;;;4949888;29;20131;-84
2021/06/06 12:11:19;;;;;;;9.80;8.95;;;21.30;99.90;;;;;;4946719;29;20076;-85
2021/06/06 12:13:51;;;;;;;10.35;9.05;;;21.10;99.90;;;;;;4949347;29;20083;-85
2021/06/06 12:16:23;;;;;;;11.02;9.98;;;21.20;99.90;;;;;;4948816;29;20551;-85
2021/06/06 12:19:12;;;;;;;11.23;10.05;;;21.50;99.90;;;;;;4948142;29;20051;-85
2021/06/06 12:21:42;;;;;;;8.70;8.07;;;21.70;99.90;;;;;;4946723;28;20055;-85
2021/06/06 12:24:10;;;;;;;9.80;9.00;;;21.80;99.90;;;;;;4952606;29;20493;-85
2021/06/06 12:26:45;;;;;;;10.52;9.52;;;21.80;99.90;;;;;;4960056;28;20238;-84
2021/06/06 12:29:12;;;;;;;8.80;8.10;;;21.70;99.90;;;;;;4962517;28;20117;-84
2021/06/06 12:31:42;;;;;;;10.32;8.57;;;21.40;99.90;;;;;;4965138;28;20498;-85
2021/06/06 12:34:21;;;;;;;10.00;9.10;;;21.30;99.90;;;;;;4966093;28;20090;-85
2021/06/06 12:36:50;;;;;;;13.63;10.52;;;21.10;99.90;;;;;;4964278;28;20057;-85
2021/06/06 12:39:19;;;;;;;13.88;10.63;;;20.80;99.90;;;;;;4969350;28;20214;-84
2021/06/06 12:41:52;;;;;;;12.82;11.45;;;20.50;99.90;;;;;;4990236;28;20051;-85
2021/06/06 12:44:25;;;;;;;14.40;11.43;;;20.30;99.90;;;;;;4970948;28;20501;-85
2021/06/06 12:46:56;;;;;;;13.07;11.70;;;20.20;99.90;;;;;;4965814;28;20071;-84
2021/06/06 12:49:37;;;;;;;12.57;11.48;;;20.00;99.90;;;;;;4982030;28;20078;-84
2021/06/06 12:52:26;;;;;;;13.75;12.35;;;19.80;99.90;;;;;;4955776;28;20051;-84
2021/06/06 12:54:53;;;;;;;13.27;12.18;;;19.80;99.90;;;;;;4951962;29;20135;-85
2021/06/06 12:57:36;;;;;;;13.13;12.02;;;19.70;99.90;;;;;;4952087;29;20055;-84
2021/06/06 13:00:33;;;;;;;13.98;12.35;;;19.70;99.90;;;;;;4957314;29;20426;-85
2021/06/06 13:03:02;;;;;;;13.90;12.57;;;19.70;99.90;;;;;;4937363;29;20047;-85
2021/06/06 13:05:43;;;;;;;14.75;13.45;;;19.60;99.90;;;;;;4945681;29;20078;-84
2021/06/06 13:08:26;;;;;;;14.38;12.88;;;19.70;99.90;;;;;;4944706;29;20047;-84
2021/06/06 13:10:57;;;;;;;13.85;12.52;;;19.70;99.90;;;;;;4944828;29;20071;-85
2021/06/06 13:13:42;;;;;;;13.00;11.88;;;19.90;99.90;;;;;;4945288;29;20086;-85
2021/06/06 13:16:30;;;;;;;11.68;10.65;;;20.40;99.90;;;;;;4943774;29;20507;-85
2021/06/06 13:19:07;;;;;;;10.82;9.82;;;20.80;99.90;;;;;;4941061;28;20466;-84
2021/06/06 13:22:01;;;;;;;10.95;9.95;;;21.20;99.90;;;;;;4955428;28;20410;-85
2021/06/06 13:24:41;;;;;;;9.40;8.70;;;21.60;99.90;;;;;;4933461;28;20078;-84